首页
METAR-TAF:

METAR-TAF

机场 :

科珀斯克里斯蒂 / Kingsville, 得克萨斯州, 美国

纬度: 27-46-23N, 经度: 097-30-46W, 海拔: 13米

当前天气观测

该预报发布于1小时和0分钟前的21:51 UTC
风速10节,风向东转东北
温度 10°C
湿度 76%
气压 1030 hPa
能見度: 16.1公里
阴天层高于2000英尺

METAR: KCRP 112151Z 06010KT 10SM OVC020 10/06 A3041 RMK AO2 SLP298 T01000056

时间: 16:51 (22:51 UTC)

预报

该预报发布于1小时和43分钟前的21:08 UTC
预报有效从11日的 21点(UTC)到 12日的 18点(UTC)
风速10节,风向
能見度: 10公里
阴天层高于1800英尺
从 11日的 2200点(UTC)
风速11节,风向北转东北
能見度: 10公里
散云层高于2500英尺
从 12日的 0500点(UTC)
风速5节,风向多变
能見度: 10公里
散云层高于1700英尺
多云层高于3500英尺

TAF: KCRP 112108Z 1121/1218 01010KT P6SM OVC018 FM112200 03011KT P6SM SCT025 FM120500 VRB05KT P6SM SCT017 BKN035

超过4000个机场的气象观测和天气预报(METAR&TAF报告)。

可查询的气象台以黄色和红色小点在地图上表示。

将鼠标移到小点上方,可查看气象台名称。

然后点击查看天气观测和预报。

如需切换地图:点击带黑十字的绿色按钮放大地图;点击带横线的绿色按钮缩小地图;或者点击绿色箭头查看邻近地区的地图。


METAR-TAF: